Time;durP1;ratioP1;P1;durP2;ratioP2;P2;SDS_P1;SDS_P2;PMS_P1;PMS_P2;Temp;Humidity;BMP_temperature;BMP_pressure;BME280_temperature;BME280_humidity;BME280_pressure;Samples;Min_cycle;Max_cycle;Signal;HPM_P1;HPM_P2
2022/08/31 00:05:55;;;;;;;19.20;14.68;;;;;;;20.49;100.00;94496.41;5011013;28;20255;-61
2022/08/31 00:08:21;;;;;;;22.15;15.10;;;;;;;20.65;100.00;94495.25;5010557;28;20679;-62
2022/08/31 00:10:48;;;;;;;21.55;14.98;;;;;;;20.64;100.00;94494.47;5011005;28;20195;-65
2022/08/31 00:13:14;;;;;;;20.90;15.13;;;;;;;20.47;100.00;94502.75;5010813;28;20195;-65
2022/08/31 00:15:39;;;;;;;19.00;14.77;;;;;;;20.57;100.00;94503.19;4993302;28;20198;-64
2022/08/31 00:18:05;;;;;;;25.15;15.13;;;;;;;20.50;100.00;94497.97;5010724;28;20199;-66
2022/08/31 00:20:31;;;;;;;20.63;15.35;;;;;;;20.44;100.00;94498.75;5010638;28;20214;-65
2022/08/31 00:22:56;;;;;;;16.92;14.15;;;;;;;20.41;100.00;94500.94;5010745;28;20202;-66
2022/08/31 00:25:22;;;;;;;20.98;14.48;;;;;;;20.43;100.00;94501.53;5010520;28;20195;-64
2022/08/31 00:27:48;;;;;;;18.45;13.98;;;;;;;20.48;100.00;94494.03;4992857;28;20202;-63
2022/08/31 00:30:14;;;;;;;21.92;14.20;;;;;;;20.54;100.00;94493.25;4991589;28;20214;-64
2022/08/31 00:32:40;;;;;;;19.50;13.52;;;;;;;20.48;100.00;94502.53;5010332;28;20187;-64
2022/08/31 00:35:06;;;;;;;21.38;14.77;;;;;;;20.48;100.00;94489.63;5010344;28;20213;-67
2022/08/31 00:37:32;;;;;;;16.88;13.27;;;;;;;20.49;100.00;94501.56;5010283;28;20187;-65
2022/08/31 00:39:57;;;;;;;15.63;13.63;;;;;;;20.58;100.00;94497.03;4992589;28;20300;-61
2022/08/31 00:42:23;;;;;;;18.05;12.70;;;;;;;20.53;100.00;94499.38;5010403;28;20186;-64
2022/08/31 00:44:49;;;;;;;17.38;13.20;;;;;;;20.57;100.00;94506.56;4992711;28;20214;-64
2022/08/31 00:47:15;;;;;;;18.67;14.32;;;;;;;20.52;100.00;94490.06;4995170;28;20660;-64
2022/08/31 00:49:45;;;;;;;15.32;12.65;;;;;;;20.48;100.00;94499.97;4996431;28;20317;-60
2022/08/31 00:52:17;;;;;;;20.42;13.40;;;;;;;20.78;100.00;94521.94;5013385;28;20191;-61
2022/08/31 00:54:51;;;;;;;15.63;12.95;;;;;;;20.79;100.00;94518.34;5013886;28;20659;-66
2022/08/31 00:57:17;;;;;;;20.33;13.57;;;;;;;20.72;100.00;94521.91;5013817;28;20602;-62
2022/08/31 00:59:44;;;;;;;19.52;13.80;;;;;;;20.56;100.00;94507.53;5013932;28;20221;-65
2022/08/31 01:02:09;;;;;;;21.27;13.88;;;;;;;20.37;100.00;94512.66;5013834;28;20236;-64
2022/08/31 01:04:35;;;;;;;16.58;13.25;;;;;;;20.46;100.00;94514.84;5013612;28;20218;-65
2022/08/31 01:07:05;;;;;;;20.05;14.15;;;;;;;20.40;100.00;94522.59;5013284;28;20322;-64
2022/08/31 01:09:36;;;;;;;17.90;13.63;;;;;;;20.23;100.00;94511.00;4996274;28;20600;-65
2022/08/31 01:12:04;;;;;;;15.85;13.38;;;;;;;20.32;100.00;94523.53;5013767;28;20195;-65
2022/08/31 01:14:29;;;;;;;20.55;13.50;;;;;;;20.35;100.00;94519.78;5013176;28;20214;-62
2022/08/31 01:16:55;;;;;;;16.08;12.82;;;;;;;20.27;100.00;94528.50;5013227;28;20191;-60
2022/08/31 01:19:40;;;;;;;14.88;12.38;;;;;;;20.15;100.00;94529.19;5012971;28;20222;-66
2022/08/31 01:22:57;;;;;;;16.83;13.52;;;;;;;20.04;100.00;94526.16;5013706;28;20186;-64
2022/08/31 01:25:23;;;;;;;18.58;13.75;;;;;;;19.84;100.00;94501.22;4898765;29;20309;-61
2022/08/31 01:27:48;;;;;;;18.02;14.35;;;;;;;19.85;100.00;94505.41;4992617;28;20326;-65
2022/08/31 01:30:22;;;;;;;15.50;12.57;;;;;;;19.77;100.00;94503.78;5013454;28;20696;-62
2022/08/31 01:32:47;;;;;;;18.35;13.52;;;;;;;19.83;100.00;94503.03;5012965;28;20574;-63
2022/08/31 01:35:14;;;;;;;15.27;13.00;;;;;;;19.78;100.00;94507.16;5012796;28;20285;-61
2022/08/31 01:37:40;;;;;;;17.50;12.98;;;;;;;19.87;100.00;94506.81;5013290;28;20699;-61
2022/08/31 01:40:06;;;;;;;14.73;12.80;;;;;;;19.89;100.00;94502.28;5013056;28;20211;-65
2022/08/31 01:42:32;;;;;;;15.60;12.90;;;;;;;19.99;100.00;94507.09;4995187;28;20199;-65
2022/08/31 01:44:58;;;;;;;20.70;17.77;;;;;;;19.94;100.00;94514.59;5012765;28;20203;-64
2022/08/31 01:47:23;;;;;;;21.35;18.05;;;;;;;20.03;100.00;94513.47;5012801;28;20679;-65
2022/08/31 01:49:48;;;;;;;18.40;14.85;;;;;;;20.05;100.00;94514.88;5012578;28;20213;-63
2022/08/31 01:52:14;;;;;;;18.33;13.13;;;;;;;20.14;100.00;94515.47;5012792;28;20587;-64
2022/08/31 01:54:39;;;;;;;15.73;13.20;;;;;;;20.18;100.00;94508.19;5012811;28;20210;-65
2022/08/31 01:57:05;;;;;;;17.08;12.75;;;;;;;20.23;100.00;94503.25;5012316;28;20562;-65
2022/08/31 01:59:31;;;;;;;14.25;12.75;;;;;;;20.21;100.00;94500.88;5012073;28;20634;-64
2022/08/31 02:01:57;;;;;;;18.25;13.73;;;;;;;20.23;100.00;94500.66;5012576;28;20183;-64
2022/08/31 02:04:25;;;;;;;18.25;14.18;;;;;;;20.24;100.00;94504.84;5012355;28;20211;-65
2022/08/31 02:06:53;;;;;;;16.02;14.13;;;;;;;20.37;100.00;94502.31;5012374;28;20325;-64
2022/08/31 02:09:19;;;;;;;15.30;12.68;;;;;;;20.36;100.00;94511.84;5012673;28;20218;-65
2022/08/31 02:11:45;;;;;;;16.50;12.68;;;;;;;20.28;100.00;94508.66;5012107;28;20384;-64
2022/08/31 02:14:11;;;;;;;15.57;13.23;;;;;;;20.14;100.00;94502.56;5012993;28;20580;-64
2022/08/31 02:16:37;;;;;;;14.57;12.88;;;;;;;20.07;100.00;94506.94;4994613;28;20202;-65
2022/08/31 02:19:05;;;;;;;20.00;13.38;;;;;;;20.03;100.00;94498.78;5012650;28;20700;-63
2022/08/31 02:21:31;;;;;;;15.23;13.68;;;;;;;20.01;100.00;94500.75;5012151;28;20597;-64
2022/08/31 02:23:57;;;;;;;18.33;14.80;;;;;;;20.01;100.00;94498.16;5012410;28;20605;-60
2022/08/31 02:26:22;;;;;;;15.55;14.02;;;;;;;19.90;100.00;94500.47;5032413;22;20230;-63
2022/08/31 02:28:48;;;;;;;16.42;14.07;;;;;;;19.92;100.00;94498.50;5014019;28;20222;-67
2022/08/31 02:31:14;;;;;;;15.60;12.13;;;;;;;20.02;100.00;94494.59;5031604;28;20264;-65
2022/08/31 02:33:40;;;;;;;21.70;13.80;;;;;;;20.00;100.00;94496.56;5031649;28;20202;-63
2022/08/31 02:36:06;;;;;;;16.15;13.50;;;;;;;19.98;100.00;94495.16;5032092;28;20193;-68
2022/08/31 02:38:33;;;;;;;18.02;15.88;;;;;;;19.98;100.00;94493.38;5032347;28;20666;-63
2022/08/31 02:40:59;;;;;;;16.38;13.65;;;;;;;20.02;100.00;94499.75;5032173;28;20283;-63
2022/08/31 02:43:25;;;;;;;19.33;14.27;;;;;;;19.98;100.00;94502.88;5031864;28;20640;-64
2022/08/31 02:45:52;;;;;;;19.50;13.63;;;;;;;19.95;100.00;94501.50;5013689;28;20294;-64
2022/08/31 02:48:17;;;;;;;18.83;13.65;;;;;;;19.97;100.00;94501.31;5031433;28;20190;-64
2022/08/31 02:50:46;;;;;;;18.00;14.23;;;;;;;19.99;100.00;94507.88;5031311;28;20190;-64
2022/08/31 02:53:21;;;;;;;20.02;13.93;;;;;;;19.99;100.00;94499.34;5031274;28;20201;-64
2022/08/31 02:55:47;;;;;;;20.55;13.80;;;;;;;19.95;100.00;94504.09;5013742;28;20206;-62
2022/08/31 02:58:13;;;;;;;19.35;13.68;;;;;;;20.11;100.00;94502.97;5031363;28;20174;-64
2022/08/31 03:00:44;;;;;;;19.08;14.10;;;;;;;20.22;100.00;94505.03;5031180;28;20210;-65
2022/08/31 03:03:09;;;;;;;21.17;14.35;;;;;;;20.11;100.00;94518.47;5031336;28;20719;-63
2022/08/31 03:05:35;;;;;;;19.73;13.23;;;;;;;19.94;100.00;94492.16;5031421;28;20255;-64
2022/08/31 03:08:00;;;;;;;19.35;13.05;;;;;;;19.82;100.00;94498.03;5031259;28;20222;-63
2022/08/31 03:10:26;;;;;;;18.00;14.23;;;;;;;19.67;100.00;94489.63;5040135;22;20253;-64
2022/08/31 03:12:52;;;;;;;17.40;13.93;;;;;;;19.69;100.00;94490.25;5031546;28;20226;-63
2022/08/31 03:15:20;;;;;;;18.73;15.23;;;;;;;19.74;100.00;94498.19;5031130;28;20214;-63
2022/08/31 03:17:46;;;;;;;19.67;16.30;;;;;;;19.72;100.00;94508.72;5031058;28;20259;-63
2022/08/31 03:20:20;;;;;;;22.92;15.38;;;;;;;19.64;100.00;94495.16;5013214;28;20688;-63
2022/08/31 03:22:46;;;;;;;16.83;15.02;;;;;;;19.34;100.00;94491.97;5031242;28;20186;-64
2022/08/31 03:25:11;;;;;;;18.00;14.07;;;;;;;19.38;100.00;94500.13;5030915;28;20651;-65
2022/08/31 03:27:37;;;;;;;19.20;13.48;;;;;;;19.31;100.00;94494.88;5030901;28;20193;-63
2022/08/31 03:30:08;;;;;;;16.52;13.02;;;;;;;19.28;100.00;94490.09;5030883;28;20206;-63
2022/08/31 03:32:34;;;;;;;18.67;13.60;;;;;;;19.36;100.00;94487.44;5030800;28;20182;-64
2022/08/31 03:35:01;;;;;;;18.17;14.20;;;;;;;19.35;100.00;94485.84;5031053;28;20221;-65
2022/08/31 03:37:27;;;;;;;16.33;13.50;;;;;;;19.44;100.00;94489.88;5031174;28;20672;-61
2022/08/31 03:39:52;;;;;;;14.40;12.85;;;;;;;19.62;100.00;94487.59;5030480;28;20233;-61
2022/08/31 03:42:18;;;;;;;16.13;13.25;;;;;;;19.66;100.00;94493.97;5031073;28;20186;-63
2022/08/31 03:44:46;;;;;;;16.20;13.73;;;;;;;19.41;100.00;94479.13;5031749;28;20210;-63
2022/08/31 03:47:11;;;;;;;17.50;13.95;;;;;;;19.33;100.00;94485.25;5030973;28;20229;-61
2022/08/31 03:49:37;;;;;;;16.95;13.98;;;;;;;19.32;100.00;94487.94;5032172;28;20284;-63
2022/08/31 03:52:03;;;;;;;17.95;14.15;;;;;;;19.40;100.00;94483.50;5031342;28;20682;-61
2022/08/31 03:54:29;;;;;;;14.73;12.95;;;;;;;19.17;100.00;94488.03;5030898;28;20216;-63
2022/08/31 03:56:54;;;;;;;17.83;14.25;;;;;;;19.08;100.00;94482.22;5031220;28;20194;-63
2022/08/31 03:59:19;;;;;;;15.13;13.57;;;;;;;19.32;100.00;94490.53;5030952;28;20216;-64
2022/08/31 04:01:45;;;;;;;20.23;14.52;;;;;;;19.62;100.00;94492.75;5030320;28;20206;-61
2022/08/31 04:04:12;;;;;;;16.42;13.52;;;;;;;20.06;100.00;94489.81;5032123;28;20264;-63
2022/08/31 04:06:39;;;;;;;17.63;13.27;;;;;;;20.51;100.00;94497.00;5031073;28;20186;-62
2022/08/31 04:09:06;;;;;;;18.83;14.25;;;;;;;20.79;100.00;94495.09;5031345;28;20232;-62
2022/08/31 04:11:32;;;;;;;17.52;13.65;;;;;;;21.14;100.00;94515.66;5031148;28;20678;-64
2022/08/31 04:13:58;;;;;;;15.32;12.30;;;;;;;21.32;100.00;94526.22;5031257;28;20210;-64
2022/08/31 04:16:25;;;;;;;14.10;12.30;;;;;;;21.52;100.00;94556.28;5013617;28;20222;-65
2022/08/31 04:18:51;;;;;;;17.40;13.23;;;;;;;21.57;100.00;94553.88;5013418;28;20214;-65
2022/08/31 04:21:21;;;;;;;19.55;13.05;;;;;;;21.57;99.54;94571.22;5031995;28;20773;-62
2022/08/31 04:23:48;;;;;;;14.98;12.98;;;;;;;21.72;98.93;94569.22;5033853;28;20213;-62
2022/08/31 04:26:16;;;;;;;20.05;12.73;;;;;;;21.84;98.25;94574.59;5034035;28;20186;-63
2022/08/31 04:28:42;;;;;;;19.73;13.80;;;;;;;21.92;94.68;94619.22;5016055;28;20284;-64
2022/08/31 04:31:08;;;;;;;14.52;13.10;;;;;;;21.64;96.39;94582.34;5015948;28;20202;-64
2022/08/31 04:33:37;;;;;;;16.75;12.90;;;;;;;21.36;97.76;94558.44;5033832;28;20213;-63
2022/08/31 04:36:07;;;;;;;18.67;11.90;;;;;;;21.16;100.00;94513.66;5033800;28;20344;-62
2022/08/31 04:38:33;;;;;;;18.35;12.63;;;;;;;21.27;100.00;94523.44;5033777;28;20206;-62
2022/08/31 04:41:08;;;;;;;13.60;11.38;;;;;;;21.50;99.92;94558.25;5033248;28;20237;-64
2022/08/31 04:43:34;;;;;;;16.27;12.95;;;;;;;21.49;98.98;94555.88;5033441;28;20287;-64
2022/08/31 04:46:02;;;;;;;16.85;12.55;;;;;;;21.48;98.86;94552.50;5033340;28;20187;-63
2022/08/31 04:48:28;;;;;;;16.92;12.23;;;;;;;21.51;100.00;94533.97;5033280;28;20198;-63
2022/08/31 04:51:05;;;;;;;17.63;13.55;;;;;;;21.20;99.81;94535.56;5033374;28;20189;-62
2022/08/31 04:53:30;;;;;;;18.13;14.35;;;;;;;20.77;100.00;94516.94;5033478;28;20279;-62
2022/08/31 04:55:56;;;;;;;22.85;14.15;;;;;;;20.74;100.00;94520.75;5015359;28;20237;-63
2022/08/31 04:58:22;;;;;;;22.48;14.13;;;;;;;21.04;100.00;94504.91;5033193;28;20225;-62
2022/08/31 05:00:49;;;;;;;17.95;13.60;;;;;;;21.39;100.00;94514.09;5015308;28;20276;-66
2022/08/31 05:03:16;;;;;;;25.13;15.07;;;;;;;21.16;99.89;94545.50;5015107;28;20206;-66
2022/08/31 05:05:42;;;;;;;27.42;17.42;;;;;;;21.06;100.00;94498.56;5032979;28;20190;-65
2022/08/31 05:08:07;;;;;;;38.53;21.42;;;;;;;21.22;100.00;94485.25;5015107;28;20256;-64
2022/08/31 05:10:33;;;;;;;34.70;18.65;;;;;;;21.40;100.00;94500.16;5032643;28;20221;-65
2022/08/31 05:12:59;;;;;;;27.85;17.92;;;;;;;21.38;100.00;94507.31;5031619;28;20198;-65
2022/08/31 05:15:24;;;;;;;26.08;16.70;;;;;;;21.50;100.00;94531.59;5040279;22;20305;-66
2022/08/31 05:17:50;;;;;;;20.33;14.90;;;;;;;21.69;100.00;94546.31;5032882;28;20186;-65
2022/08/31 05:20:16;;;;;;;19.85;13.93;;;;;;;21.68;98.94;94561.06;5032620;28;20210;-65
2022/08/31 05:22:41;;;;;;;17.58;13.23;;;;;;;21.48;96.19;94569.81;5032726;28;20190;-65
2022/08/31 05:25:08;;;;;;;17.10;13.57;;;;;;;21.23;99.94;94523.03;5032746;28;20256;-64
2022/08/31 05:27:34;;;;;;;18.88;13.52;;;;;;;21.22;100.00;94513.69;5032585;28;20186;-64
2022/08/31 05:29:59;;;;;;;15.50;13.77;;;;;;;21.21;100.00;94506.13;5032664;28;20757;-63
2022/08/31 05:32:25;;;;;;;15.35;13.73;;;;;;;20.92;100.00;94507.25;5029779;28;20191;-65
2022/08/31 05:34:51;;;;;;;16.88;13.63;;;;;;;20.76;100.00;94481.78;5031675;28;20240;-65
2022/08/31 05:37:17;;;;;;;19.20;13.65;;;;;;;21.03;100.00;94487.81;5031312;28;20616;-65
2022/08/31 05:39:42;;;;;;;20.83;13.85;;;;;;;21.48;100.00;94513.69;5032519;28;20684;-66
2022/08/31 05:42:08;;;;;;;18.80;13.70;;;;;;;21.31;99.94;94528.00;5032403;28;20182;-65
2022/08/31 05:44:35;;;;;;;18.90;13.35;;;;;;;21.43;99.64;94523.06;5032143;28;20213;-65
2022/08/31 05:47:00;;;;;;;17.58;13.85;;;;;;;21.70;99.33;94533.19;5014638;28;20174;-65
2022/08/31 05:49:26;;;;;;;18.98;13.10;;;;;;;21.71;97.86;94542.53;5032796;28;20252;-63
2022/08/31 05:51:52;;;;;;;17.48;14.15;;;;;;;21.04;98.99;94516.06;5014496;28;20182;-63
2022/08/31 05:54:18;;;;;;;20.80;15.30;;;;;;;20.74;100.00;94494.09;5032680;28;20202;-65
2022/08/31 05:56:44;;;;;;;19.60;14.68;;;;;;;20.47;100.00;94466.59;5018937;22;20223;-65
2022/08/31 05:59:11;;;;;;;19.50;15.70;;;;;;;20.83;100.00;94501.47;5012625;28;20203;-65
2022/08/31 06:01:39;;;;;;;23.05;14.18;;;;;;;20.80;100.00;94441.63;5012791;28;20222;-65
2022/08/31 06:04:07;;;;;;;22.25;14.75;;;;;;;20.93;100.00;94462.31;5012360;28;20210;-65
2022/08/31 06:06:33;;;;;;;19.25;12.80;;;;;;;21.39;100.00;94478.66;5011347;28;20233;-65
2022/08/31 06:08:59;;;;;;;12.75;11.38;;;;;;;21.88;100.00;94472.25;5012337;28;20207;-65
2022/08/31 06:11:27;;;;;;;17.55;12.35;;;;;;;22.33;100.00;94486.84;5012576;28;20257;-66
2022/08/31 06:13:55;;;;;;;14.52;12.57;;;;;;;22.70;98.04;94550.94;5011224;28;20198;-65
2022/08/31 06:16:21;;;;;;;13.57;12.18;;;;;;;22.87;95.26;94562.41;5010985;28;20202;-65
2022/08/31 06:18:50;;;;;;;13.95;11.73;;;;;;;23.06;91.97;94590.03;5012294;28;20209;-65
2022/08/31 06:21:24;;;;;;;13.95;10.85;;;;;;;23.24;90.27;94597.91;5012145;28;20242;-66
2022/08/31 06:23:58;;;;;;;13.88;12.23;;;;;;;23.24;90.14;94597.13;5010948;28;20257;-66
2022/08/31 06:26:27;;;;;;;13.73;11.23;;;;;;;23.29;89.27;94595.47;5011141;28;20201;-66
2022/08/31 06:28:55;;;;;;;13.15;10.15;;;;;;;23.51;89.53;94590.00;5012240;28;20206;-64
2022/08/31 06:31:22;;;;;;;15.75;10.80;;;;;;;23.66;88.70;94596.47;5012500;28;20191;-65
2022/08/31 06:33:48;;;;;;;16.90;11.02;;;;;;;23.82;87.34;94598.53;5023862;22;20252;-62
2022/08/31 06:36:17;;;;;;;12.55;9.68;;;;;;;23.91;87.06;94606.88;5031770;28;20194;-64
2022/08/31 06:38:43;;;;;;;13.95;10.48;;;;;;;23.98;86.37;94613.59;5031612;28;20769;-65
2022/08/31 06:41:19;;;;;;;13.52;10.15;;;;;;;23.86;86.92;94598.91;5031788;28;20210;-64
2022/08/31 06:43:46;;;;;;;14.23;10.45;;;;;;;23.85;86.83;94602.53;5031228;28;20241;-64
2022/08/31 06:46:13;;;;;;;15.07;9.75;;;;;;;23.99;86.63;94601.41;5031540;28;20202;-64
2022/08/31 06:48:38;;;;;;;11.85;9.07;;;;;;;24.07;86.13;94603.75;5031871;28;20198;-63
2022/08/31 06:51:05;;;;;;;12.52;9.95;;;;;;;24.16;85.40;94616.25;5031760;28;20198;-66
2022/08/31 06:53:32;;;;;;;13.38;9.80;;;;;;;24.34;84.21;94625.09;5013835;28;20206;-66
2022/08/31 06:56:09;;;;;;;14.70;11.25;;;;;;;24.36;83.88;94626.47;5039137;22;20249;-66
2022/08/31 06:58:34;;;;;;;17.70;11.38;;;;;;;24.48;83.29;94635.16;5031331;28;20205;-67
2022/08/31 07:01:09;;;;;;;16.60;11.68;;;;;;;24.44;83.00;94633.22;5031329;28;20217;-65
2022/08/31 07:03:37;;;;;;;14.65;11.25;;;;;;;24.39;82.77;94639.03;5031503;28;20240;-66
2022/08/31 07:06:16;;;;;;;13.63;10.65;;;;;;;24.44;82.57;94643.59;5031510;28;20260;-63
2022/08/31 07:08:43;;;;;;;15.90;10.90;;;;;;;24.27;82.27;94642.56;5031370;28;20769;-64
2022/08/31 07:11:19;;;;;;;13.73;10.32;;;;;;;24.08;83.04;94615.72;5031395;28;20240;-65
2022/08/31 07:13:46;;;;;;;14.38;11.35;;;;;;;23.93;83.80;94613.44;5031282;28;20245;-66
2022/08/31 07:16:15;;;;;;;14.70;10.25;;;;;;;23.86;84.64;94598.91;5014040;28;20194;-63
2022/08/31 07:18:43;;;;;;;15.40;10.13;;;;;;;23.88;84.83;94589.91;5031024;28;20237;-64
2022/08/31 07:21:15;;;;;;;12.43;10.63;;;;;;;23.96;83.87;94600.03;5030984;28;20220;-63
2022/08/31 07:23:41;;;;;;;18.50;11.60;;;;;;;23.94;84.52;94596.03;5031169;28;20221;-64
2022/08/31 07:26:11;;;;;;;14.93;12.25;;;;;;;23.90;84.14;94597.47;5029787;28;20186;-65
2022/08/31 07:28:37;;;;;;;12.43;11.23;;;;;;;23.87;84.76;94597.91;5031135;28;20237;-65
2022/08/31 07:31:04;;;;;;;15.23;11.20;;;;;;;23.64;85.54;94574.31;5031181;28;20276;-65
2022/08/31 07:33:37;;;;;;;15.40;11.65;;;;;;;23.89;85.15;94588.91;5030879;28;20206;-65
2022/08/31 07:36:14;;;;;;;16.30;10.98;;;;;;;24.06;84.47;94612.56;5030991;28;20192;-65
2022/08/31 07:44:00;;;;;;;12.48;10.63;;;;;;;24.31;83.45;94608.13;5030955;28;20398;-65
2022/08/31 07:46:30;;;;;;;15.85;10.55;;;;;;;24.39;82.89;94614.84;5030759;28;20601;-66
2022/08/31 07:48:58;;;;;;;11.02;9.93;;;;;;;24.51;82.40;94618.31;5030681;28;20719;-66
2022/08/31 07:51:25;;;;;;;14.23;10.50;;;;;;;24.49;81.85;94623.75;5031026;28;20197;-68
2022/08/31 07:53:51;;;;;;;17.50;10.57;;;;;;;24.04;83.89;94591.19;5030674;28;20210;-67
2022/08/31 07:56:18;;;;;;;14.38;10.48;;;;;;;24.24;84.17;94584.00;5031998;28;20192;-66
2022/08/31 07:58:46;;;;;;;10.73;9.63;;;;;;;24.37;86.03;94550.09;5016350;28;20624;-64
2022/08/31 08:01:13;;;;;;;14.55;10.18;;;;;;;24.28;84.09;94582.56;5034302;28;20202;-64
2022/08/31 08:03:43;;;;;;;17.05;10.43;;;;;;;24.36;84.19;94579.69;5033992;28;20308;-63
2022/08/31 08:06:14;;;;;;;20.08;11.63;;;;;;;23.98;83.32;94592.81;5033872;28;20182;-62
2022/08/31 08:08:42;;;;;;;14.15;10.88;;;;;;;23.74;85.59;94549.47;5033990;28;20214;-63
2022/08/31 08:11:14;;;;;;;14.60;11.65;;;;;;;23.56;85.48;94551.22;5034195;28;20218;-65
2022/08/31 08:13:40;;;;;;;13.68;11.00;;;;;;;23.60;85.44;94552.38;5016250;28;20214;-63
2022/08/31 08:16:05;;;;;;;11.85;10.10;;;;;;;23.48;86.11;94533.31;5033842;28;20187;-65
2022/08/31 08:18:31;;;;;;;17.08;10.40;;;;;;;23.66;85.78;94541.16;5016014;28;20221;-66
2022/08/31 08:20:56;;;;;;;15.35;10.73;;;;;;;23.70;87.44;94516.34;5033813;28;20661;-65
2022/08/31 08:23:22;;;;;;;15.65;9.75;;;;;;;23.75;84.67;94553.66;5033791;28;20733;-65
2022/08/31 08:25:47;;;;;;;16.13;10.15;;;;;;;23.90;87.21;94509.97;5033755;28;21048;-65
2022/08/31 08:28:16;;;;;;;15.38;9.82;;;;;;;23.83;83.07;94581.97;5033500;28;20217;-65
2022/08/31 08:30:53;;;;;;;10.93;9.40;;;;;;;23.80;82.96;94587.56;5015926;28;20182;-65
2022/08/31 08:33:19;;;;;;;11.32;9.30;;;;;;;23.84;84.50;94554.19;5033674;28;20190;-66
2022/08/31 08:35:45;;;;;;;14.02;10.60;;;;;;;23.82;83.18;94576.97;5033759;28;20193;-65
2022/08/31 08:38:10;;;;;;;15.45;9.60;;;;;;;23.93;84.60;94547.72;5015820;28;20194;-65
2022/08/31 08:40:42;;;;;;;14.43;9.85;;;;;;;24.10;85.03;94556.56;5033508;28;20583;-64
2022/08/31 08:43:15;;;;;;;13.40;9.77;;;;;;;24.27;83.26;94575.78;5033601;28;20248;-64
2022/08/31 08:45:43;;;;;;;17.35;9.57;;;;;;;24.37;81.79;94594.28;5015732;28;20196;-63
2022/08/31 08:48:16;;;;;;;11.05;9.30;;;;;;;24.45;81.40;94604.41;5015715;28;20269;-64
2022/08/31 08:50:41;;;;;;;11.60;8.70;;;;;;;24.53;81.31;94591.09;5015502;28;20186;-65
2022/08/31 08:53:11;;;;;;;16.52;9.35;;;;;;;24.69;79.64;94619.13;5033391;28;20302;-64
2022/08/31 08:55:40;;;;;;;13.00;9.13;;;;;;;24.83;79.97;94612.81;5033352;28;20269;-64
2022/08/31 08:58:09;;;;;;;12.02;8.82;;;;;;;25.22;81.43;94587.28;5033260;28;20195;-65
2022/08/31 09:00:37;;;;;;;10.77;8.77;;;;;;;25.54;77.76;94644.16;5033019;28;20206;-63
2022/08/31 09:03:11;;;;;;;10.48;8.70;;;;;;;25.68;76.14;94653.38;5015357;28;20194;-64
2022/08/31 09:05:59;;;;;;;13.88;8.52;;;;;;;25.72;77.34;94625.84;5033097;28;20186;-63
2022/08/31 09:08:45;;;;;;;12.95;8.88;;;;;;;25.84;73.11;94704.03;5032976;28;20248;-65
2022/08/31 09:11:19;;;;;;;11.20;8.15;;;;;;;25.94;71.90;94701.69;5032996;28;20194;-65
2022/08/31 09:13:52;;;;;;;10.23;8.50;;;;;;;26.15;71.09;94701.19;5033012;28;20206;-65
2022/08/31 09:16:39;;;;;;;10.60;8.25;;;;;;;26.39;70.40;94702.81;5033187;28;20272;-64
2022/08/31 09:19:14;;;;;;;10.27;8.10;;;;;;;26.18;69.49;94708.56;5015197;28;20214;-66
2022/08/31 09:21:52;;;;;;;9.27;7.75;;;;;;;26.35;66.27;94758.25;5032948;28;20217;-65
2022/08/31 09:24:25;;;;;;;13.18;8.20;;;;;;;26.52;67.11;94709.63;5032723;28;20257;-64
2022/08/31 09:27:16;;;;;;;9.80;8.70;;;;;;;26.43;68.74;94672.66;5031949;28;20198;-65
2022/08/31 09:29:46;;;;;;;13.35;8.52;;;;;;;26.58;69.17;94665.16;5032584;28;20206;-65
2022/08/31 09:32:21;;;;;;;12.30;8.95;;;;;;;26.89;66.69;94705.78;5014894;28;20213;-64
2022/08/31 09:34:53;;;;;;;9.70;8.25;;;;;;;26.68;66.23;94716.78;5032739;28;20233;-64
2022/08/31 09:37:25;;;;;;;16.67;9.20;;;;;;;26.94;65.28;94723.38;5032689;28;20178;-64
2022/08/31 09:39:52;;;;;;;9.00;7.93;;;;;;;27.15;64.49;94730.63;4998310;28;20246;-64
2022/08/31 09:42:31;;;;;;;11.75;8.20;;;;;;;27.15;64.19;94728.78;5014998;28;20197;-63
2022/08/31 09:45:08;;;;;;;12.57;9.05;;;;;;;27.02;64.31;94709.97;5014654;28;20279;-65
2022/08/31 09:47:51;;;;;;;11.07;8.05;;;;;;;27.23;63.59;94714.59;5014983;28;20231;-64
2022/08/31 09:50:40;;;;;;;11.25;8.18;;;;;;;27.27;61.85;94739.22;5032490;28;20206;-64
2022/08/31 09:56:12;;;;;;;14.10;8.98;;;;;;;27.43;59.89;94741.16;5032488;28;20200;-65
2022/08/31 09:58:40;;;;;;;13.52;8.38;;;;;;;27.49;60.37;94727.16;5032346;28;20692;-65
2022/08/31 10:01:13;;;;;;;13.70;8.80;;;;;;;27.45;60.78;94699.94;5032250;28;20218;-64
2022/08/31 10:03:44;;;;;;;12.90;8.20;;;;;;;27.61;61.38;94691.34;5032544;28;20229;-65
2022/08/31 10:06:29;;;;;;;11.52;8.00;;;;;;;27.69;61.38;94687.56;5032382;28;20193;-64
2022/08/31 10:09:01;;;;;;;11.65;7.97;;;;;;;27.71;60.66;94695.97;5032366;28;20209;-65
2022/08/31 10:11:31;;;;;;;18.35;10.25;;;;;;;27.76;59.60;94717.75;5018392;23;20235;-65
2022/08/31 10:14:03;;;;;;;12.48;8.13;;;;;;;27.75;59.48;94710.13;5012978;28;20274;-64
2022/08/31 10:16:46;;;;;;;13.63;7.53;;;;;;;27.96;57.53;94757.34;5012283;28;20195;-63
2022/08/31 10:19:26;;;;;;;11.73;8.25;;;;;;;28.04;57.11;94761.41;5011534;28;20219;-63
2022/08/31 10:22:01;;;;;;;9.80;7.65;;;;;;;28.39;56.65;94751.53;5012130;28;20310;-64
2022/08/31 10:24:33;;;;;;;10.35;8.10;;;;;;;28.78;57.50;94723.66;5012340;28;20338;-63
2022/08/31 10:27:05;;;;;;;12.63;7.15;;;;;;;28.54;53.57;94804.13;5011014;28;20191;-63
2022/08/31 10:29:53;;;;;;;9.30;8.10;;;;;;;28.59;52.98;94806.06;5012109;28;20203;-62
2022/08/31 10:32:41;;;;;;;10.73;7.93;;;;;;;28.85;53.64;94771.38;5012070;28;20195;-63
2022/08/31 10:35:19;;;;;;;12.35;8.23;;;;;;;28.92;54.75;94736.19;5012037;28;20210;-66
2022/08/31 10:38:07;;;;;;;9.45;7.60;;;;;;;29.46;55.32;94721.44;5012224;28;20640;-65
2022/08/31 10:40:40;;;;;;;10.40;7.65;;;;;;;29.31;52.78;94757.16;5010915;28;20696;-65
2022/08/31 10:43:17;;;;;;;14.27;7.85;;;;;;;28.95;53.15;94740.91;5012042;28;20313;-65
2022/08/31 10:45:52;;;;;;;10.77;7.50;;;;;;;28.72;56.29;94677.50;5012296;28;20191;-64
2022/08/31 10:48:25;;;;;;;12.32;7.78;;;;;;;28.45;57.06;94651.19;5011892;28;20688;-65
2022/08/31 10:51:04;;;;;;;14.77;7.85;;;;;;;27.72;58.31;94647.88;5012097;28;20179;-65
2022/08/31 10:54:11;;;;;;;13.60;7.85;;;;;;;27.27;60.75;94595.63;5011913;28;20284;-65
2022/08/31 10:56:40;;;;;;;17.60;8.35;;;;;;;26.79;63.22;94550.81;5011927;28;20272;-65
2022/08/31 10:59:29;;;;;;;8.98;7.93;;;;;;;26.43;67.16;94468.47;5011825;28;20207;-63
2022/08/31 11:01:57;;;;;;;10.63;8.00;;;;;;;26.33;66.74;94496.94;5011559;28;20221;-63
2022/08/31 11:04:47;;;;;;;11.38;8.23;;;;;;;25.74;70.65;94427.66;5011469;28;20234;-62
2022/08/31 11:07:31;;;;;;;10.82;8.68;;;;;;;25.72;70.30;94443.53;5011688;28;20195;-61
2022/08/31 11:10:21;;;;;;;14.68;7.88;;;;;;;25.55;69.80;94473.84;5010211;28;20246;-62
2022/08/31 11:12:55;;;;;;;10.95;7.65;;;;;;;25.30;69.92;94469.84;5011591;28;20183;-62
2022/08/31 11:15:27;;;;;;;11.40;7.85;;;;;;;25.10;71.92;94427.72;5010240;28;20256;-64
2022/08/31 11:18:49;;;;;;;15.05;8.05;;;;;;;25.18;74.76;94396.97;5010182;28;20194;-66
2022/08/31 11:21:18;;;;;;;12.00;7.80;;;;;;;25.15;73.48;94435.66;4951109;29;20897;-65
2022/08/31 11:24:05;;;;;;;11.10;8.45;;;;;;;25.06;74.06;94423.97;5009069;28;20712;-64
2022/08/31 11:26:43;;;;;;;8.90;7.72;;;;;;;25.07;75.37;94410.75;5011831;28;20221;-65
2022/08/31 11:29:15;;;;;;;11.10;7.95;;;;;;;24.81;74.07;94431.97;5011389;28;20210;-65
2022/08/31 11:31:41;;;;;;;13.77;9.10;;;;;;;24.39;75.55;94399.91;5010469;28;20362;-64
2022/08/31 11:34:15;;;;;;;14.40;9.23;;;;;;;24.24;76.92;94372.75;5011370;28;20207;-64
2022/08/31 11:36:43;;;;;;;11.23;9.48;;;;;;;24.28;76.89;94385.06;5011625;28;20269;-63
2022/08/31 11:39:08;;;;;;;13.82;9.52;;;;;;;24.18;74.68;94423.75;5009869;28;20210;-63
2022/08/31 11:41:48;;;;;;;11.90;9.23;;;;;;;24.27;74.22;94445.84;5011505;28;20298;-62